sensor_id;sensor_type;location;lat;lon;timestamp;P1;durP1;ratioP1;P2;durP2;ratioP2
56667;SDS011;42542;48.360;10.958;2024-01-30T00:01:51;15.63;;;6.40;;
56667;SDS011;42542;48.360;10.958;2024-01-30T00:04:54;20.35;;;6.85;;
56667;SDS011;42542;48.360;10.958;2024-01-30T00:07:56;17.92;;;6.65;;
56667;SDS011;42542;48.360;10.958;2024-01-30T00:10:59;23.33;;;7.75;;
56667;SDS011;42542;48.360;10.958;2024-01-30T00:14:00;22.80;;;7.87;;
56667;SDS011;42542;48.360;10.958;2024-01-30T00:17:02;16.67;;;6.63;;
56667;SDS011;42542;48.360;10.958;2024-01-30T00:20:05;15.02;;;6.80;;
56667;SDS011;42542;48.360;10.958;2024-01-30T00:23:08;17.93;;;6.90;;
56667;SDS011;42542;48.360;10.958;2024-01-30T00:26:10;18.55;;;7.00;;
56667;SDS011;42542;48.360;10.958;2024-01-30T00:29:12;19.40;;;7.18;;
56667;SDS011;42542;48.360;10.958;2024-01-30T00:32:21;17.30;;;6.40;;
56667;SDS011;42542;48.360;10.958;2024-01-30T00:35:25;15.50;;;5.93;;
56667;SDS011;42542;48.360;10.958;2024-01-30T00:38:26;17.55;;;7.30;;
56667;SDS011;42542;48.360;10.958;2024-01-30T00:41:28;16.92;;;6.28;;
56667;SDS011;42542;48.360;10.958;2024-01-30T00:44:30;15.13;;;7.00;;
56667;SDS011;42542;48.360;10.958;2024-01-30T00:47:33;16.90;;;6.43;;
56667;SDS011;42542;48.360;10.958;2024-01-30T00:50:34;16.17;;;6.28;;
56667;SDS011;42542;48.360;10.958;2024-01-30T00:53:36;17.63;;;7.03;;
56667;SDS011;42542;48.360;10.958;2024-01-30T00:56:38;17.88;;;6.38;;
56667;SDS011;42542;48.360;10.958;2024-01-30T00:59:40;20.70;;;7.38;;
56667;SDS011;42542;48.360;10.958;2024-01-30T01:02:42;19.15;;;6.70;;
56667;SDS011;42542;48.360;10.958;2024-01-30T01:05:44;18.40;;;7.22;;
56667;SDS011;42542;48.360;10.958;2024-01-30T01:08:46;16.30;;;6.97;;
56667;SDS011;42542;48.360;10.958;2024-01-30T01:11:47;20.65;;;7.03;;
56667;SDS011;42542;48.360;10.958;2024-01-30T01:14:50;16.67;;;6.63;;
56667;SDS011;42542;48.360;10.958;2024-01-30T01:17:51;16.65;;;6.38;;
56667;SDS011;42542;48.360;10.958;2024-01-30T01:20:53;16.02;;;5.75;;
56667;SDS011;42542;48.360;10.958;2024-01-30T01:23:55;17.87;;;6.73;;
56667;SDS011;42542;48.360;10.958;2024-01-30T01:26:58;16.13;;;6.47;;
56667;SDS011;42542;48.360;10.958;2024-01-30T01:30:00;17.13;;;6.05;;
56667;SDS011;42542;48.360;10.958;2024-01-30T01:33:02;14.82;;;6.45;;
56667;SDS011;42542;48.360;10.958;2024-01-30T01:36:04;17.83;;;6.80;;
56667;SDS011;42542;48.360;10.958;2024-01-30T01:39:07;16.40;;;6.35;;
56667;SDS011;42542;48.360;10.958;2024-01-30T01:42:10;16.88;;;5.85;;
56667;SDS011;42542;48.360;10.958;2024-01-30T01:45:12;16.43;;;6.60;;
56667;SDS011;42542;48.360;10.958;2024-01-30T01:48:14;15.07;;;5.65;;
56667;SDS011;42542;48.360;10.958;2024-01-30T01:51:16;18.20;;;6.28;;
56667;SDS011;42542;48.360;10.958;2024-01-30T01:54:17;16.50;;;5.57;;
56667;SDS011;42542;48.360;10.958;2024-01-30T01:57:19;14.30;;;6.28;;
56667;SDS011;42542;48.360;10.958;2024-01-30T02:00:22;15.90;;;6.40;;
56667;SDS011;42542;48.360;10.958;2024-01-30T02:03:25;13.57;;;5.30;;
56667;SDS011;42542;48.360;10.958;2024-01-30T02:06:27;12.02;;;5.43;;
56667;SDS011;42542;48.360;10.958;2024-01-30T02:09:29;12.32;;;5.28;;
56667;SDS011;42542;48.360;10.958;2024-01-30T02:12:31;13.90;;;5.47;;
56667;SDS011;42542;48.360;10.958;2024-01-30T02:15:33;16.17;;;5.90;;
56667;SDS011;42542;48.360;10.958;2024-01-30T02:18:34;16.48;;;5.85;;
56667;SDS011;42542;48.360;10.958;2024-01-30T02:21:37;16.38;;;5.82;;
56667;SDS011;42542;48.360;10.958;2024-01-30T02:24:40;15.10;;;5.80;;
56667;SDS011;42542;48.360;10.958;2024-01-30T02:27:42;13.55;;;5.47;;
56667;SDS011;42542;48.360;10.958;2024-01-30T02:30:45;13.35;;;5.30;;
56667;SDS011;42542;48.360;10.958;2024-01-30T02:33:47;15.07;;;6.22;;
56667;SDS011;42542;48.360;10.958;2024-01-30T02:36:49;15.32;;;5.57;;
56667;SDS011;42542;48.360;10.958;2024-01-30T02:39:51;12.52;;;5.03;;
56667;SDS011;42542;48.360;10.958;2024-01-30T02:42:53;14.60;;;4.95;;
56667;SDS011;42542;48.360;10.958;2024-01-30T02:45:55;15.20;;;4.57;;
56667;SDS011;42542;48.360;10.958;2024-01-30T02:48:57;14.65;;;5.63;;
56667;SDS011;42542;48.360;10.958;2024-01-30T02:51:59;15.23;;;5.43;;
56667;SDS011;42542;48.360;10.958;2024-01-30T02:55:01;12.60;;;5.27;;
56667;SDS011;42542;48.360;10.958;2024-01-30T02:58:03;15.55;;;5.22;;
56667;SDS011;42542;48.360;10.958;2024-01-30T03:01:06;12.38;;;4.97;;
56667;SDS011;42542;48.360;10.958;2024-01-30T03:04:08;14.30;;;4.93;;
56667;SDS011;42542;48.360;10.958;2024-01-30T03:07:10;12.82;;;4.95;;
56667;SDS011;42542;48.360;10.958;2024-01-30T03:10:12;12.75;;;4.57;;
56667;SDS011;42542;48.360;10.958;2024-01-30T03:13:14;11.57;;;4.40;;
56667;SDS011;42542;48.360;10.958;2024-01-30T03:16:16;13.10;;;4.60;;
56667;SDS011;42542;48.360;10.958;2024-01-30T03:19:18;14.88;;;4.30;;
56667;SDS011;42542;48.360;10.958;2024-01-30T03:22:20;10.68;;;4.00;;
56667;SDS011;42542;48.360;10.958;2024-01-30T03:25:22;9.53;;;3.73;;
56667;SDS011;42542;48.360;10.958;2024-01-30T03:28:24;16.08;;;4.55;;
56667;SDS011;42542;48.360;10.958;2024-01-30T03:31:26;12.43;;;4.60;;
56667;SDS011;42542;48.360;10.958;2024-01-30T03:34:28;11.57;;;4.75;;
56667;SDS011;42542;48.360;10.958;2024-01-30T03:37:30;12.38;;;4.68;;
56667;SDS011;42542;48.360;10.958;2024-01-30T03:40:31;11.57;;;4.80;;
56667;SDS011;42542;48.360;10.958;2024-01-30T03:43:33;13.02;;;4.90;;
56667;SDS011;42542;48.360;10.958;2024-01-30T03:46:35;13.30;;;4.70;;
56667;SDS011;42542;48.360;10.958;2024-01-30T03:49:37;12.23;;;4.53;;
56667;SDS011;42542;48.360;10.958;2024-01-30T03:52:39;10.82;;;4.32;;
56667;SDS011;42542;48.360;10.958;2024-01-30T03:55:40;11.97;;;4.07;;
56667;SDS011;42542;48.360;10.958;2024-01-30T03:58:42;11.35;;;4.50;;
56667;SDS011;42542;48.360;10.958;2024-01-30T04:01:46;12.35;;;4.40;;
56667;SDS011;42542;48.360;10.958;2024-01-30T04:04:48;10.20;;;4.07;;
56667;SDS011;42542;48.360;10.958;2024-01-30T04:07:51;11.73;;;4.38;;
56667;SDS011;42542;48.360;10.958;2024-01-30T04:10:53;10.98;;;3.65;;
56667;SDS011;42542;48.360;10.958;2024-01-30T04:13:54;12.38;;;4.40;;
56667;SDS011;42542;48.360;10.958;2024-01-30T04:16:56;15.40;;;4.47;;
56667;SDS011;42542;48.360;10.958;2024-01-30T04:19:57;13.55;;;4.13;;
56667;SDS011;42542;48.360;10.958;2024-01-30T04:22:59;11.38;;;3.90;;
56667;SDS011;42542;48.360;10.958;2024-01-30T04:26:02;12.53;;;4.00;;
56667;SDS011;42542;48.360;10.958;2024-01-30T04:29:04;12.07;;;4.43;;
56667;SDS011;42542;48.360;10.958;2024-01-30T04:32:06;11.20;;;4.53;;
56667;SDS011;42542;48.360;10.958;2024-01-30T04:35:08;11.77;;;4.80;;
56667;SDS011;42542;48.360;10.958;2024-01-30T04:38:12;12.13;;;4.07;;
56667;SDS011;42542;48.360;10.958;2024-01-30T04:41:15;11.02;;;4.00;;
56667;SDS011;42542;48.360;10.958;2024-01-30T04:44:17;12.60;;;4.03;;
56667;SDS011;42542;48.360;10.958;2024-01-30T04:47:19;11.37;;;3.97;;
56667;SDS011;42542;48.360;10.958;2024-01-30T04:50:22;10.35;;;3.80;;
56667;SDS011;42542;48.360;10.958;2024-01-30T04:53:25;10.55;;;3.92;;
56667;SDS011;42542;48.360;10.958;2024-01-30T04:56:27;9.73;;;3.73;;
56667;SDS011;42542;48.360;10.958;2024-01-30T04:59:29;10.93;;;4.40;;
56667;SDS011;42542;48.360;10.958;2024-01-30T05:02:31;11.30;;;4.20;;
56667;SDS011;42542;48.360;10.958;2024-01-30T05:05:33;10.30;;;4.18;;
56667;SDS011;42542;48.360;10.958;2024-01-30T05:08:34;12.52;;;4.63;;
56667;SDS011;42542;48.360;10.958;2024-01-30T05:11:40;12.45;;;3.97;;
56667;SDS011;42542;48.360;10.958;2024-01-30T05:14:42;11.05;;;3.72;;
56667;SDS011;42542;48.360;10.958;2024-01-30T05:17:45;11.43;;;3.67;;
56667;SDS011;42542;48.360;10.958;2024-01-30T05:20:46;12.00;;;4.10;;
56667;SDS011;42542;48.360;10.958;2024-01-30T05:23:48;11.98;;;3.95;;
56667;SDS011;42542;48.360;10.958;2024-01-30T05:26:50;12.03;;;3.80;;
56667;SDS011;42542;48.360;10.958;2024-01-30T05:29:53;14.27;;;4.50;;
56667;SDS011;42542;48.360;10.958;2024-01-30T05:32:54;11.60;;;4.50;;
56667;SDS011;42542;48.360;10.958;2024-01-30T05:35:56;8.07;;;3.40;;
56667;SDS011;42542;48.360;10.958;2024-01-30T05:38:58;13.75;;;4.63;;
56667;SDS011;42542;48.360;10.958;2024-01-30T05:42:00;9.88;;;3.88;;
56667;SDS011;42542;48.360;10.958;2024-01-30T05:45:02;11.10;;;4.13;;
56667;SDS011;42542;48.360;10.958;2024-01-30T05:48:04;10.73;;;3.97;;
56667;SDS011;42542;48.360;10.958;2024-01-30T05:51:06;10.85;;;4.25;;
56667;SDS011;42542;48.360;10.958;2024-01-30T05:54:10;9.77;;;3.60;;
56667;SDS011;42542;48.360;10.958;2024-01-30T05:57:14;10.87;;;4.20;;
56667;SDS011;42542;48.360;10.958;2024-01-30T06:00:16;12.10;;;3.92;;
56667;SDS011;42542;48.360;10.958;2024-01-30T06:03:18;13.50;;;4.38;;
56667;SDS011;42542;48.360;10.958;2024-01-30T06:06:20;10.35;;;4.13;;
56667;SDS011;42542;48.360;10.958;2024-01-30T06:09:22;14.20;;;4.72;;
56667;SDS011;42542;48.360;10.958;2024-01-30T06:12:24;13.45;;;4.43;;
56667;SDS011;42542;48.360;10.958;2024-01-30T06:15:27;12.98;;;4.70;;
56667;SDS011;42542;48.360;10.958;2024-01-30T06:18:31;15.53;;;4.60;;
56667;SDS011;42542;48.360;10.958;2024-01-30T06:21:32;14.65;;;4.70;;
56667;SDS011;42542;48.360;10.958;2024-01-30T06:24:38;11.27;;;4.43;;
56667;SDS011;42542;48.360;10.958;2024-01-30T06:27:39;12.67;;;4.70;;
56667;SDS011;42542;48.360;10.958;2024-01-30T06:30:42;14.43;;;5.40;;
56667;SDS011;42542;48.360;10.958;2024-01-30T06:33:46;17.83;;;4.72;;
56667;SDS011;42542;48.360;10.958;2024-01-30T06:36:49;14.10;;;4.55;;
56667;SDS011;42542;48.360;10.958;2024-01-30T06:39:51;14.32;;;4.45;;
56667;SDS011;42542;48.360;10.958;2024-01-30T06:42:54;19.30;;;5.03;;
56667;SDS011;42542;48.360;10.958;2024-01-30T06:45:56;13.98;;;4.70;;
56667;SDS011;42542;48.360;10.958;2024-01-30T06:48:57;12.17;;;5.00;;
56667;SDS011;42542;48.360;10.958;2024-01-30T06:51:59;12.32;;;4.45;;
56667;SDS011;42542;48.360;10.958;2024-01-30T06:55:01;11.00;;;4.28;;
56667;SDS011;42542;48.360;10.958;2024-01-30T06:58:03;18.50;;;4.90;;
56667;SDS011;42542;48.360;10.958;2024-01-30T07:01:06;11.68;;;4.65;;
56667;SDS011;42542;48.360;10.958;2024-01-30T07:04:07;10.90;;;3.97;;
56667;SDS011;42542;48.360;10.958;2024-01-30T07:07:10;12.20;;;4.47;;
56667;SDS011;42542;48.360;10.958;2024-01-30T07:10:14;13.00;;;4.32;;
56667;SDS011;42542;48.360;10.958;2024-01-30T07:13:16;10.35;;;4.30;;
56667;SDS011;42542;48.360;10.958;2024-01-30T07:16:18;13.02;;;4.82;;
56667;SDS011;42542;48.360;10.958;2024-01-30T07:19:19;10.57;;;4.10;;
56667;SDS011;42542;48.360;10.958;2024-01-30T07:22:21;17.02;;;4.88;;
56667;SDS011;42542;48.360;10.958;2024-01-30T07:25:24;13.35;;;4.72;;
56667;SDS011;42542;48.360;10.958;2024-01-30T07:28:28;11.93;;;4.47;;
56667;SDS011;42542;48.360;10.958;2024-01-30T07:31:31;18.20;;;6.10;;
56667;SDS011;42542;48.360;10.958;2024-01-30T07:34:35;12.95;;;4.57;;
56667;SDS011;42542;48.360;10.958;2024-01-30T07:37:50;12.40;;;4.57;;
56667;SDS011;42542;48.360;10.958;2024-01-30T07:40:52;12.32;;;4.97;;
56667;SDS011;42542;48.360;10.958;2024-01-30T07:43:55;15.20;;;4.93;;
56667;SDS011;42542;48.360;10.958;2024-01-30T07:46:56;15.07;;;4.32;;
56667;SDS011;42542;48.360;10.958;2024-01-30T07:49:59;12.97;;;4.40;;
56667;SDS011;42542;48.360;10.958;2024-01-30T07:53:00;11.82;;;5.00;;
56667;SDS011;42542;48.360;10.958;2024-01-30T07:56:03;13.80;;;4.47;;
56667;SDS011;42542;48.360;10.958;2024-01-30T07:59:09;11.27;;;4.87;;
56667;SDS011;42542;48.360;10.958;2024-01-30T08:02:12;12.18;;;4.97;;
56667;SDS011;42542;48.360;10.958;2024-01-30T08:05:14;14.18;;;4.63;;
56667;SDS011;42542;48.360;10.958;2024-01-30T08:08:16;13.02;;;5.28;;
56667;SDS011;42542;48.360;10.958;2024-01-30T08:11:19;23.08;;;4.78;;
56667;SDS011;42542;48.360;10.958;2024-01-30T08:14:22;11.57;;;4.95;;
56667;SDS011;42542;48.360;10.958;2024-01-30T08:17:23;12.23;;;4.82;;
56667;SDS011;42542;48.360;10.958;2024-01-30T08:20:25;13.53;;;5.20;;
56667;SDS011;42542;48.360;10.958;2024-01-30T08:23:27;14.30;;;5.22;;
56667;SDS011;42542;48.360;10.958;2024-01-30T08:26:29;14.27;;;4.90;;
56667;SDS011;42542;48.360;10.958;2024-01-30T08:29:31;11.73;;;5.03;;
56667;SDS011;42542;48.360;10.958;2024-01-30T08:32:32;14.60;;;4.90;;
56667;SDS011;42542;48.360;10.958;2024-01-30T08:35:35;12.32;;;4.90;;
56667;SDS011;42542;48.360;10.958;2024-01-30T08:38:36;11.27;;;4.97;;
56667;SDS011;42542;48.360;10.958;2024-01-30T08:41:38;15.40;;;5.20;;
56667;SDS011;42542;48.360;10.958;2024-01-30T08:44:40;13.57;;;5.43;;
56667;SDS011;42542;48.360;10.958;2024-01-30T08:47:43;14.55;;;5.10;;
56667;SDS011;42542;48.360;10.958;2024-01-30T08:50:44;13.13;;;5.07;;
56667;SDS011;42542;48.360;10.958;2024-01-30T08:53:46;11.77;;;4.80;;
56667;SDS011;42542;48.360;10.958;2024-01-30T08:56:48;13.27;;;4.45;;
56667;SDS011;42542;48.360;10.958;2024-01-30T08:59:50;11.23;;;4.60;;
56667;SDS011;42542;48.360;10.958;2024-01-30T09:02:51;13.40;;;4.90;;
56667;SDS011;42542;48.360;10.958;2024-01-30T09:05:53;11.40;;;4.03;;
56667;SDS011;42542;48.360;10.958;2024-01-30T09:08:55;12.00;;;3.80;;
56667;SDS011;42542;48.360;10.958;2024-01-30T09:11:59;12.70;;;4.72;;
56667;SDS011;42542;48.360;10.958;2024-01-30T09:15:06;12.35;;;4.68;;
56667;SDS011;42542;48.360;10.958;2024-01-30T09:18:09;11.27;;;4.30;;
56667;SDS011;42542;48.360;10.958;2024-01-30T09:21:11;11.57;;;4.13;;
56667;SDS011;42542;48.360;10.958;2024-01-30T09:24:13;9.50;;;4.00;;
56667;SDS011;42542;48.360;10.958;2024-01-30T09:27:15;11.57;;;4.07;;
56667;SDS011;42542;48.360;10.958;2024-01-30T09:30:17;12.27;;;4.27;;
56667;SDS011;42542;48.360;10.958;2024-01-30T09:33:19;10.15;;;4.07;;
56667;SDS011;42542;48.360;10.958;2024-01-30T09:36:22;12.70;;;4.32;;
56667;SDS011;42542;48.360;10.958;2024-01-30T09:39:24;10.90;;;4.20;;
56667;SDS011;42542;48.360;10.958;2024-01-30T09:42:28;11.35;;;4.43;;
56667;SDS011;42542;48.360;10.958;2024-01-30T09:45:30;10.18;;;4.38;;
56667;SDS011;42542;48.360;10.958;2024-01-30T09:48:35;12.00;;;4.20;;
56667;SDS011;42542;48.360;10.958;2024-01-30T09:51:37;11.93;;;4.37;;
56667;SDS011;42542;48.360;10.958;2024-01-30T09:54:39;11.43;;;4.43;;
56667;SDS011;42542;48.360;10.958;2024-01-30T09:57:43;11.55;;;4.47;;
56667;SDS011;42542;48.360;10.958;2024-01-30T10:00:46;14.37;;;4.90;;
56667;SDS011;42542;48.360;10.958;2024-01-30T10:03:50;13.52;;;4.53;;
56667;SDS011;42542;48.360;10.958;2024-01-30T10:06:54;8.85;;;4.10;;
56667;SDS011;42542;48.360;10.958;2024-01-30T10:09:55;11.50;;;4.65;;
56667;SDS011;42542;48.360;10.958;2024-01-30T10:12:58;10.07;;;4.03;;
56667;SDS011;42542;48.360;10.958;2024-01-30T10:16:04;10.02;;;4.15;;
56667;SDS011;42542;48.360;10.958;2024-01-30T10:19:08;9.73;;;3.83;;
56667;SDS011;42542;48.360;10.958;2024-01-30T10:22:10;12.77;;;4.43;;
56667;SDS011;42542;48.360;10.958;2024-01-30T10:25:12;11.05;;;3.85;;
56667;SDS011;42542;48.360;10.958;2024-01-30T10:28:14;12.18;;;4.63;;
56667;SDS011;42542;48.360;10.958;2024-01-30T10:31:16;10.37;;;3.80;;
56667;SDS011;42542;48.360;10.958;2024-01-30T10:34:19;10.63;;;3.70;;
56667;SDS011;42542;48.360;10.958;2024-01-30T10:37:25;8.95;;;3.35;;
56667;SDS011;42542;48.360;10.958;2024-01-30T10:40:28;8.82;;;3.88;;
56667;SDS011;42542;48.360;10.958;2024-01-30T10:43:32;9.68;;;3.70;;
56667;SDS011;42542;48.360;10.958;2024-01-30T10:46:39;9.85;;;3.60;;
56667;SDS011;42542;48.360;10.958;2024-01-30T10:49:44;10.90;;;4.05;;
56667;SDS011;42542;48.360;10.958;2024-01-30T10:52:48;10.63;;;3.30;;
56667;SDS011;42542;48.360;10.958;2024-01-30T10:55:51;8.07;;;3.30;;
56667;SDS011;42542;48.360;10.958;2024-01-30T10:58:54;10.50;;;3.85;;
56667;SDS011;42542;48.360;10.958;2024-01-30T11:01:59;15.10;;;3.27;;
56667;SDS011;42542;48.360;10.958;2024-01-30T11:05:04;8.60;;;3.42;;
56667;SDS011;42542;48.360;10.958;2024-01-30T11:08:12;10.27;;;3.65;;
56667;SDS011;42542;48.360;10.958;2024-01-30T11:11:16;9.73;;;3.47;;
56667;SDS011;42542;48.360;10.958;2024-01-30T11:14:25;10.02;;;3.90;;
56667;SDS011;42542;48.360;10.958;2024-01-30T11:17:27;10.32;;;4.00;;
56667;SDS011;42542;48.360;10.958;2024-01-30T11:20:30;12.27;;;4.10;;
56667;SDS011;42542;48.360;10.958;2024-01-30T11:23:33;10.27;;;3.47;;
56667;SDS011;42542;48.360;10.958;2024-01-30T11:26:36;9.48;;;3.90;;
56667;SDS011;42542;48.360;10.958;2024-01-30T11:29:38;10.45;;;3.85;;
56667;SDS011;42542;48.360;10.958;2024-01-30T11:32:41;9.97;;;3.73;;
56667;SDS011;42542;48.360;10.958;2024-01-30T11:35:44;9.32;;;3.60;;
56667;SDS011;42542;48.360;10.958;2024-01-30T11:38:47;10.75;;;4.00;;
56667;SDS011;42542;48.360;10.958;2024-01-30T11:41:50;11.38;;;3.90;;
56667;SDS011;42542;48.360;10.958;2024-01-30T11:44:53;9.15;;;3.58;;
56667;SDS011;42542;48.360;10.958;2024-01-30T11:47:56;10.23;;;4.03;;
56667;SDS011;42542;48.360;10.958;2024-01-30T11:50:58;10.88;;;4.07;;
56667;SDS011;42542;48.360;10.958;2024-01-30T11:54:01;11.90;;;4.03;;
56667;SDS011;42542;48.360;10.958;2024-01-30T11:57:02;9.45;;;3.97;;
56667;SDS011;42542;48.360;10.958;2024-01-30T12:00:13;9.68;;;4.10;;
56667;SDS011;42542;48.360;10.958;2024-01-30T12:03:16;13.10;;;4.43;;
56667;SDS011;42542;48.360;10.958;2024-01-30T12:06:18;10.55;;;3.90;;
56667;SDS011;42542;48.360;10.958;2024-01-30T12:09:20;10.68;;;4.15;;
56667;SDS011;42542;48.360;10.958;2024-01-30T12:12:26;12.52;;;4.30;;
56667;SDS011;42542;48.360;10.958;2024-01-30T12:15:29;9.23;;;3.85;;
56667;SDS011;42542;48.360;10.958;2024-01-30T12:18:31;10.50;;;4.20;;
56667;SDS011;42542;48.360;10.958;2024-01-30T12:21:33;10.95;;;3.92;;
56667;SDS011;42542;48.360;10.958;2024-01-30T12:24:36;9.83;;;3.63;;
56667;SDS011;42542;48.360;10.958;2024-01-30T12:27:38;10.15;;;4.00;;
56667;SDS011;42542;48.360;10.958;2024-01-30T12:30:41;9.10;;;3.65;;
56667;SDS011;42542;48.360;10.958;2024-01-30T12:33:44;14.13;;;4.07;;
56667;SDS011;42542;48.360;10.958;2024-01-30T12:36:47;10.82;;;4.35;;
56667;SDS011;42542;48.360;10.958;2024-01-30T12:39:53;13.15;;;5.10;;
56667;SDS011;42542;48.360;10.958;2024-01-30T12:42:56;12.27;;;5.05;;
56667;SDS011;42542;48.360;10.958;2024-01-30T12:45:58;12.70;;;4.95;;
56667;SDS011;42542;48.360;10.958;2024-01-30T12:49:01;14.18;;;5.72;;
56667;SDS011;42542;48.360;10.958;2024-01-30T12:52:03;16.88;;;5.63;;
56667;SDS011;42542;48.360;10.958;2024-01-30T12:55:05;15.07;;;5.83;;
56667;SDS011;42542;48.360;10.958;2024-01-30T12:58:07;16.92;;;7.22;;
56667;SDS011;42542;48.360;10.958;2024-01-30T13:01:10;13.23;;;5.00;;
56667;SDS011;42542;48.360;10.958;2024-01-30T13:04:12;15.23;;;5.10;;
56667;SDS011;42542;48.360;10.958;2024-01-30T13:07:15;13.57;;;5.07;;
56667;SDS011;42542;48.360;10.958;2024-01-30T13:10:18;13.35;;;4.70;;
56667;SDS011;42542;48.360;10.958;2024-01-30T13:13:20;11.43;;;4.82;;
56667;SDS011;42542;48.360;10.958;2024-01-30T13:16:22;10.50;;;4.68;;
56667;SDS011;42542;48.360;10.958;2024-01-30T13:19:24;12.20;;;4.90;;
56667;SDS011;42542;48.360;10.958;2024-01-30T13:22:26;12.27;;;4.85;;
56667;SDS011;42542;48.360;10.958;2024-01-30T13:25:28;10.57;;;4.20;;
56667;SDS011;42542;48.360;10.958;2024-01-30T13:28:30;9.63;;;3.92;;
56667;SDS011;42542;48.360;10.958;2024-01-30T13:31:32;15.25;;;4.13;;
56667;SDS011;42542;48.360;10.958;2024-01-30T13:34:35;10.97;;;3.97;;
56667;SDS011;42542;48.360;10.958;2024-01-30T13:37:36;9.30;;;4.05;;
56667;SDS011;42542;48.360;10.958;2024-01-30T13:40:39;11.55;;;4.30;;
56667;SDS011;42542;48.360;10.958;2024-01-30T13:43:41;11.45;;;3.97;;
56667;SDS011;42542;48.360;10.958;2024-01-30T13:46:42;10.98;;;4.30;;
56667;SDS011;42542;48.360;10.958;2024-01-30T13:49:45;10.57;;;3.83;;
56667;SDS011;42542;48.360;10.958;2024-01-30T13:52:47;9.38;;;3.85;;
56667;SDS011;42542;48.360;10.958;2024-01-30T13:55:48;12.30;;;3.93;;
56667;SDS011;42542;48.360;10.958;2024-01-30T13:58:51;12.68;;;4.28;;
56667;SDS011;42542;48.360;10.958;2024-01-30T14:01:53;10.02;;;4.43;;
56667;SDS011;42542;48.360;10.958;2024-01-30T14:04:55;12.47;;;4.50;;
56667;SDS011;42542;48.360;10.958;2024-01-30T14:07:57;11.73;;;4.25;;
56667;SDS011;42542;48.360;10.958;2024-01-30T14:11:00;11.85;;;4.85;;
56667;SDS011;42542;48.360;10.958;2024-01-30T14:14:02;13.98;;;5.50;;
56667;SDS011;42542;48.360;10.958;2024-01-30T14:17:04;13.10;;;5.43;;
56667;SDS011;42542;48.360;10.958;2024-01-30T14:20:08;9.77;;;4.47;;
56667;SDS011;42542;48.360;10.958;2024-01-30T14:23:11;13.05;;;4.75;;
56667;SDS011;42542;48.360;10.958;2024-01-30T14:26:13;12.23;;;4.47;;
56667;SDS011;42542;48.360;10.958;2024-01-30T14:29:18;11.27;;;3.97;;
56667;SDS011;42542;48.360;10.958;2024-01-30T14:32:20;10.05;;;3.53;;
56667;SDS011;42542;48.360;10.958;2024-01-30T14:35:22;10.10;;;3.70;;
56667;SDS011;42542;48.360;10.958;2024-01-30T14:38:24;9.05;;;3.55;;
56667;SDS011;42542;48.360;10.958;2024-01-30T14:41:27;9.38;;;3.28;;
56667;SDS011;42542;48.360;10.958;2024-01-30T14:44:29;10.75;;;4.03;;
56667;SDS011;42542;48.360;10.958;2024-01-30T14:47:32;11.48;;;5.68;;
56667;SDS011;42542;48.360;10.958;2024-01-30T14:50:35;13.38;;;6.03;;
56667;SDS011;42542;48.360;10.958;2024-01-30T14:53:36;10.77;;;4.82;;
56667;SDS011;42542;48.360;10.958;2024-01-30T14:56:38;11.10;;;4.20;;
56667;SDS011;42542;48.360;10.958;2024-01-30T14:59:41;10.52;;;4.13;;
56667;SDS011;42542;48.360;10.958;2024-01-30T15:02:43;11.57;;;4.07;;
56667;SDS011;42542;48.360;10.958;2024-01-30T15:05:46;10.63;;;4.37;;
56667;SDS011;42542;48.360;10.958;2024-01-30T15:08:47;10.68;;;4.82;;
56667;SDS011;42542;48.360;10.958;2024-01-30T15:11:49;11.40;;;5.43;;
56667;SDS011;42542;48.360;10.958;2024-01-30T15:14:51;14.13;;;5.75;;
56667;SDS011;42542;48.360;10.958;2024-01-30T15:17:54;11.95;;;5.03;;
56667;SDS011;42542;48.360;10.958;2024-01-30T15:20:56;11.13;;;5.03;;
56667;SDS011;42542;48.360;10.958;2024-01-30T15:23:59;12.00;;;4.72;;
56667;SDS011;42542;48.360;10.958;2024-01-30T15:27:02;11.43;;;4.57;;
56667;SDS011;42542;48.360;10.958;2024-01-30T15:30:05;10.93;;;4.75;;
56667;SDS011;42542;48.360;10.958;2024-01-30T15:33:09;10.30;;;4.05;;
56667;SDS011;42542;48.360;10.958;2024-01-30T15:36:11;11.93;;;4.67;;
56667;SDS011;42542;48.360;10.958;2024-01-30T15:39:15;13.50;;;5.07;;
56667;SDS011;42542;48.360;10.958;2024-01-30T15:42:19;13.70;;;5.00;;
56667;SDS011;42542;48.360;10.958;2024-01-30T15:45:22;11.82;;;4.68;;
56667;SDS011;42542;48.360;10.958;2024-01-30T15:48:26;11.48;;;4.30;;
56667;SDS011;42542;48.360;10.958;2024-01-30T15:51:27;13.25;;;4.97;;
56667;SDS011;42542;48.360;10.958;2024-01-30T15:54:30;11.10;;;4.32;;
56667;SDS011;42542;48.360;10.958;2024-01-30T15:57:33;12.30;;;4.57;;
56667;SDS011;42542;48.360;10.958;2024-01-30T16:00:34;11.68;;;4.35;;
56667;SDS011;42542;48.360;10.958;2024-01-30T16:03:36;10.88;;;4.30;;
56667;SDS011;42542;48.360;10.958;2024-01-30T16:06:38;11.90;;;4.40;;
56667;SDS011;42542;48.360;10.958;2024-01-30T16:09:40;11.60;;;4.40;;
56667;SDS011;42542;48.360;10.958;2024-01-30T16:12:42;13.68;;;4.35;;
56667;SDS011;42542;48.360;10.958;2024-01-30T16:15:47;16.58;;;4.68;;
56667;SDS011;42542;48.360;10.958;2024-01-30T16:18:49;10.95;;;4.18;;
56667;SDS011;42542;48.360;10.958;2024-01-30T16:21:51;12.18;;;4.28;;
56667;SDS011;42542;48.360;10.958;2024-01-30T16:24:53;15.40;;;4.72;;
56667;SDS011;42542;48.360;10.958;2024-01-30T16:27:55;10.13;;;3.60;;
56667;SDS011;42542;48.360;10.958;2024-01-30T16:30:56;13.52;;;4.60;;
56667;SDS011;42542;48.360;10.958;2024-01-30T16:33:59;12.48;;;4.68;;
56667;SDS011;42542;48.360;10.958;2024-01-30T16:37:02;15.07;;;5.20;;
56667;SDS011;42542;48.360;10.958;2024-01-30T16:40:05;16.52;;;6.45;;
56667;SDS011;42542;48.360;10.958;2024-01-30T16:43:07;14.63;;;5.90;;
56667;SDS011;42542;48.360;10.958;2024-01-30T16:46:10;17.85;;;7.00;;
56667;SDS011;42542;48.360;10.958;2024-01-30T16:49:11;16.05;;;6.30;;
56667;SDS011;42542;48.360;10.958;2024-01-30T16:52:14;18.25;;;6.50;;
56667;SDS011;42542;48.360;10.958;2024-01-30T16:55:15;19.58;;;6.60;;
56667;SDS011;42542;48.360;10.958;2024-01-30T16:58:18;16.97;;;6.23;;
56667;SDS011;42542;48.360;10.958;2024-01-30T17:01:20;17.33;;;6.93;;
56667;SDS011;42542;48.360;10.958;2024-01-30T17:04:22;17.98;;;7.07;;
56667;SDS011;42542;48.360;10.958;2024-01-30T17:07:24;16.33;;;6.57;;
56667;SDS011;42542;48.360;10.958;2024-01-30T17:10:26;16.08;;;7.00;;
56667;SDS011;42542;48.360;10.958;2024-01-30T17:13:28;16.05;;;6.40;;
56667;SDS011;42542;48.360;10.958;2024-01-30T17:16:30;17.38;;;6.85;;
56667;SDS011;42542;48.360;10.958;2024-01-30T17:19:32;16.88;;;7.22;;
56667;SDS011;42542;48.360;10.958;2024-01-30T17:22:35;19.70;;;7.40;;
56667;SDS011;42542;48.360;10.958;2024-01-30T17:25:37;20.45;;;6.68;;
56667;SDS011;42542;48.360;10.958;2024-01-30T17:28:39;18.17;;;7.13;;
56667;SDS011;42542;48.360;10.958;2024-01-30T17:31:42;18.77;;;6.68;;
56667;SDS011;42542;48.360;10.958;2024-01-30T17:34:46;17.20;;;6.72;;
56667;SDS011;42542;48.360;10.958;2024-01-30T17:37:48;14.73;;;6.27;;
56667;SDS011;42542;48.360;10.958;2024-01-30T17:40:49;15.23;;;6.72;;
56667;SDS011;42542;48.360;10.958;2024-01-30T17:44:09;20.92;;;6.78;;
56667;SDS011;42542;48.360;10.958;2024-01-30T17:47:13;16.80;;;6.82;;
56667;SDS011;42542;48.360;10.958;2024-01-30T17:50:14;18.95;;;7.70;;